createdAt,value
2023-05-16T00:01:47.607Z,23.80
2023-05-16T00:04:14.402Z,23.83
2023-05-16T00:06:41.446Z,23.71
2023-05-16T00:09:07.971Z,23.80
2023-05-16T00:11:35.301Z,23.31
2023-05-16T00:14:02.149Z,23.81
2023-05-16T00:16:29.486Z,23.62
2023-05-16T00:18:57.166Z,23.47
2023-05-16T00:21:24.451Z,23.39
2023-05-16T00:23:52.182Z,23.22
2023-05-16T00:26:18.921Z,23.08
2023-05-16T00:28:45.578Z,22.91
2023-05-16T00:31:12.290Z,22.70
2023-05-16T00:33:39.286Z,23.18
2023-05-16T00:36:06.929Z,23.09
2023-05-16T00:38:34.260Z,22.85
2023-05-16T00:41:01.050Z,23.36
2023-05-16T00:43:29.396Z,23.20
2023-05-16T00:45:57.209Z,23.10
2023-05-16T00:48:23.965Z,23.04
2023-05-16T00:50:52.619Z,22.82
2023-05-16T00:53:20.289Z,23.26
2023-05-16T00:55:46.906Z,23.41
2023-05-16T00:58:13.630Z,23.79
2023-05-16T01:00:40.689Z,24.01
2023-05-16T01:03:07.797Z,23.31
2023-05-16T01:05:34.609Z,23.14
2023-05-16T01:08:01.432Z,23.01
2023-05-16T01:10:36.268Z,23.10
2023-05-16T01:13:12.140Z,23.38
2023-05-16T01:15:44.786Z,23.91
2023-05-16T01:18:33.990Z,24.16
2023-05-16T01:21:04.368Z,24.52
2023-05-16T01:23:50.830Z,24.15
2023-05-16T01:26:27.449Z,24.14
2023-05-16T01:28:54.339Z,23.64
2023-05-16T01:31:21.461Z,23.63
2023-05-16T01:33:48.288Z,23.63
2023-05-16T01:36:25.728Z,23.36
2023-05-16T01:39:18.609Z,23.38
2023-05-16T01:41:48.726Z,23.35
2023-05-16T01:44:24.839Z,23.32
2023-05-16T01:46:55.745Z,23.36
2023-05-16T01:49:45.166Z,23.22
2023-05-16T01:52:19.438Z,23.12
2023-05-16T01:54:47.318Z,23.33
2023-05-16T01:57:13.839Z,23.51
2023-05-16T01:59:40.883Z,23.27
2023-05-16T02:02:08.343Z,23.27
2023-05-16T02:04:35.204Z,23.42
2023-05-16T02:07:03.956Z,23.01
2023-05-16T02:09:30.932Z,23.35
2023-05-16T02:11:57.492Z,23.30
2023-05-16T02:14:25.328Z,22.89
2023-05-16T02:16:51.993Z,22.87
2023-05-16T02:19:18.993Z,23.37
2023-05-16T02:21:45.802Z,23.56
2023-05-16T02:24:12.445Z,23.63
2023-05-16T02:26:39.057Z,23.10
2023-05-16T02:29:05.681Z,22.85
2023-05-16T02:31:34.078Z,23.13
2023-05-16T02:34:01.510Z,23.01
2023-05-16T02:36:28.272Z,23.07
2023-05-16T02:38:55.086Z,23.24
2023-05-16T02:41:22.646Z,23.12
2023-05-16T02:43:49.283Z,22.95
2023-05-16T02:46:23.413Z,23.05
2023-05-16T02:48:51.181Z,23.46
2023-05-16T02:51:19.976Z,22.91
2023-05-16T02:53:47.009Z,23.10
2023-05-16T02:56:13.656Z,23.08
2023-05-16T02:58:41.404Z,23.41
2023-05-16T03:01:08.497Z,23.71
2023-05-16T03:03:36.453Z,23.51
2023-05-16T03:06:05.543Z,23.54
2023-05-16T03:08:33.560Z,23.84
2023-05-16T03:11:00.635Z,23.76
2023-05-16T03:13:29.426Z,23.74
2023-05-16T03:15:58.754Z,23.68
2023-05-16T03:18:25.583Z,23.72
2023-05-16T03:20:55.935Z,24.16
2023-05-16T03:23:23.776Z,24.06
2023-05-16T03:25:50.819Z,24.22
2023-05-16T03:28:20.690Z,23.61
2023-05-16T03:30:47.298Z,23.71
2023-05-16T03:33:14.678Z,23.90
2023-05-16T03:35:41.667Z,23.71
2023-05-16T03:38:08.329Z,23.82
2023-05-16T03:40:35.199Z,23.75
2023-05-16T03:43:01.792Z,23.93
2023-05-16T03:45:31.689Z,24.55
2023-05-16T03:47:59.645Z,24.27
2023-05-16T03:50:27.190Z,24.22
2023-05-16T03:52:56.081Z,24.09
2023-05-16T03:55:22.662Z,24.04
2023-05-16T03:57:50.621Z,24.37
2023-05-16T04:00:17.355Z,24.51
2023-05-16T04:02:44.427Z,23.97
2023-05-16T04:05:12.086Z,24.00
2023-05-16T04:07:39.621Z,23.91
2023-05-16T04:10:06.651Z,23.81
2023-05-16T04:12:33.453Z,24.06
2023-05-16T04:15:00.382Z,23.63
2023-05-16T04:17:27.032Z,24.09
2023-05-16T04:21:16.356Z,29.59
2023-05-16T04:23:43.104Z,27.49
2023-05-16T04:26:09.851Z,26.95
2023-05-16T04:28:36.663Z,27.13
2023-05-16T04:31:03.518Z,26.54
2023-05-16T04:33:30.503Z,26.43
2023-05-16T04:35:58.619Z,26.47
2023-05-16T04:38:25.475Z,26.20
2023-05-16T04:40:52.757Z,26.45
2023-05-16T04:43:20.004Z,26.13
2023-05-16T04:45:47.241Z,25.90
2023-05-16T04:48:14.029Z,25.57
2023-05-16T04:50:41.372Z,25.44
2023-05-16T04:53:08.114Z,25.56
2023-05-16T04:55:34.810Z,25.16
2023-05-16T04:58:01.512Z,25.11
2023-05-16T05:00:28.433Z,25.25
2023-05-16T05:02:55.425Z,25.22
2023-05-16T05:05:22.211Z,24.72
2023-05-16T05:07:51.186Z,24.25
2023-05-16T05:10:19.486Z,23.80
2023-05-16T05:12:47.842Z,23.92
2023-05-16T05:15:14.844Z,23.93
2023-05-16T05:17:41.747Z,23.68
2023-05-16T05:20:10.574Z,23.71
2023-05-16T05:22:37.366Z,23.55
2023-05-16T05:25:05.587Z,23.81
2023-05-16T05:27:37.398Z,23.45
2023-05-16T05:30:05.067Z,23.46
2023-05-16T05:32:32.209Z,23.41
2023-05-16T05:34:59.167Z,23.07
2023-05-16T05:37:26.821Z,23.70
2023-05-16T05:39:53.594Z,23.55
2023-05-16T05:42:20.425Z,23.37
2023-05-16T05:44:47.195Z,22.97
2023-05-16T05:47:16.872Z,22.58
2023-05-16T05:49:43.642Z,22.50
2023-05-16T05:52:10.808Z,22.43
2023-05-16T05:54:37.558Z,22.11
2023-05-16T05:57:04.633Z,22.96
2023-05-16T05:59:31.431Z,22.69
2023-05-16T06:01:58.924Z,22.81
2023-05-16T06:04:25.907Z,23.01
2023-05-16T06:06:52.687Z,23.02
2023-05-16T06:09:21.230Z,23.20
2023-05-16T06:11:47.954Z,22.99
2023-05-16T06:14:14.759Z,23.25
2023-05-16T06:16:41.755Z,22.95
2023-05-16T06:19:09.476Z,22.96
2023-05-16T06:21:36.651Z,23.30
2023-05-16T06:24:04.414Z,23.72
2023-05-16T06:26:32.386Z,23.31
2023-05-16T06:28:59.325Z,23.99
2023-05-16T06:31:26.695Z,23.35
2023-05-16T06:33:53.531Z,23.43
2023-05-16T06:36:20.451Z,23.02
2023-05-16T06:38:47.207Z,22.67
2023-05-16T06:41:14.179Z,22.86
2023-05-16T06:43:41.590Z,22.45
2023-05-16T06:46:08.417Z,22.23
2023-05-16T06:48:35.185Z,22.59
2023-05-16T06:51:02.088Z,22.48
2023-05-16T06:53:29.597Z,22.66
2023-05-16T06:55:57.695Z,21.93
2023-05-16T06:58:24.446Z,21.83
2023-05-16T07:00:51.416Z,21.89
2023-05-16T07:03:18.675Z,22.01
2023-05-16T07:05:45.791Z,21.97
2023-05-16T07:08:12.566Z,21.70
2023-05-16T07:10:39.849Z,21.68
2023-05-16T07:13:07.056Z,21.30
2023-05-16T07:15:34.054Z,21.35
2023-05-16T07:18:01.001Z,21.39
2023-05-16T07:20:27.775Z,21.09
2023-05-16T07:22:57.552Z,20.80
2023-05-16T07:25:28.332Z,20.88
2023-05-16T07:27:55.863Z,20.86
2023-05-16T07:30:23.078Z,20.93
2023-05-16T07:32:50.061Z,20.82
2023-05-16T07:35:17.006Z,20.66
2023-05-16T07:37:43.989Z,20.74
2023-05-16T07:40:11.519Z,20.51
2023-05-16T07:42:38.811Z,20.79
2023-05-16T07:45:07.380Z,20.92
2023-05-16T07:47:34.988Z,21.02
2023-05-16T07:50:02.070Z,20.95
2023-05-16T07:52:28.926Z,22.00
2023-05-16T07:54:56.100Z,21.27
2023-05-16T07:57:24.898Z,21.70
2023-05-16T07:59:52.734Z,21.60
2023-05-16T08:02:19.774Z,21.51
2023-05-16T08:04:47.006Z,21.64
2023-05-16T08:07:14.058Z,21.10
2023-05-16T08:09:40.876Z,21.22
2023-05-16T08:12:08.473Z,21.56
2023-05-16T08:14:37.153Z,21.08
2023-05-16T08:17:04.709Z,21.43
2023-05-16T08:19:33.011Z,21.17
2023-05-16T08:22:00.003Z,21.46
2023-05-16T08:24:26.815Z,21.69
2023-05-16T08:26:53.798Z,21.71
2023-05-16T08:29:20.864Z,21.43
2023-05-16T08:31:48.392Z,21.61
2023-05-16T08:34:15.362Z,22.07
2023-05-16T08:36:42.241Z,21.82
2023-05-16T08:39:11.620Z,21.95
2023-05-16T08:41:39.066Z,21.81
2023-05-16T08:44:06.287Z,21.88
2023-05-16T08:46:33.242Z,21.92
2023-05-16T08:49:01.257Z,22.28
2023-05-16T08:51:28.973Z,22.62
2023-05-16T08:54:06.997Z,23.24
2023-05-16T08:56:34.698Z,23.54
2023-05-16T08:59:02.604Z,23.15
2023-05-16T09:01:30.473Z,23.92
2023-05-16T09:03:57.414Z,24.44
2023-05-16T09:06:25.045Z,24.10
2023-05-16T09:08:54.277Z,23.12
2023-05-16T09:11:21.825Z,23.01
2023-05-16T09:13:49.215Z,23.63
2023-05-16T09:16:17.810Z,23.87
2023-05-16T09:18:57.071Z,23.82
2023-05-16T09:21:30.198Z,23.32
2023-05-16T09:23:57.764Z,23.77
2023-05-16T09:26:24.534Z,24.06
2023-05-16T09:28:54.812Z,23.19
2023-05-16T09:31:36.895Z,22.99
2023-05-16T09:34:07.841Z,23.76
2023-05-16T09:36:34.689Z,23.75
2023-05-16T09:39:01.902Z,22.93
2023-05-16T09:41:28.757Z,23.61
2023-05-16T09:43:56.890Z,22.86
2023-05-16T09:46:26.420Z,22.61
2023-05-16T09:48:53.238Z,23.14
2023-05-16T09:51:22.349Z,22.79
2023-05-16T09:53:49.163Z,23.00
2023-05-16T09:56:16.441Z,23.11
2023-05-16T09:58:44.195Z,23.31
2023-05-16T10:01:11.597Z,23.33
2023-05-16T10:03:40.164Z,22.97
2023-05-16T10:06:08.322Z,23.48
2023-05-16T10:08:36.693Z,23.06
2023-05-16T10:11:04.858Z,23.20
2023-05-16T10:13:33.866Z,23.23
2023-05-16T10:16:02.198Z,22.80
2023-05-16T10:18:30.241Z,23.00
2023-05-16T10:20:58.230Z,22.24
2023-05-16T10:23:25.696Z,22.71
2023-05-16T10:25:52.551Z,22.49
2023-05-16T10:28:19.334Z,22.71
2023-05-16T10:30:46.800Z,22.82
2023-05-16T10:33:15.545Z,22.93
2023-05-16T10:35:43.657Z,21.94
2023-05-16T10:38:12.243Z,21.77
2023-05-16T10:40:39.765Z,22.00
2023-05-16T10:43:11.730Z,22.09
2023-05-16T10:45:44.454Z,22.13
2023-05-16T10:48:12.463Z,22.30
2023-05-16T10:50:46.179Z,21.89
2023-05-16T10:53:20.085Z,21.96
2023-05-16T10:55:59.495Z,22.07
2023-05-16T10:58:38.690Z,22.02
2023-05-16T11:01:19.131Z,21.88
2023-05-16T11:04:04.764Z,22.30
2023-05-16T11:06:34.659Z,22.53
2023-05-16T11:09:10.052Z,21.85
2023-05-16T11:11:49.358Z,22.09
2023-05-16T11:14:23.373Z,22.12
2023-05-16T11:16:51.913Z,21.95
2023-05-16T11:19:40.597Z,22.24
2023-05-16T11:22:08.641Z,21.77
2023-05-16T11:24:36.565Z,22.32
2023-05-16T11:27:06.633Z,22.18
2023-05-16T11:29:34.727Z,22.76
2023-05-16T11:32:03.420Z,22.21
2023-05-16T11:34:31.037Z,22.56
2023-05-16T11:36:58.476Z,22.90
2023-05-16T11:39:25.480Z,22.98
2023-05-16T11:41:53.647Z,22.83
2023-05-16T11:44:20.378Z,23.00
2023-05-16T11:46:47.813Z,22.75
2023-05-16T11:49:14.719Z,22.89
2023-05-16T11:51:43.383Z,23.04
2023-05-16T11:54:10.287Z,22.99
2023-05-16T11:56:37.240Z,23.19
2023-05-16T11:59:04.622Z,23.34
2023-05-16T12:01:38.983Z,22.93
2023-05-16T12:04:10.488Z,23.14
2023-05-16T12:06:37.705Z,23.16
2023-05-16T12:09:10.595Z,23.08
2023-05-16T12:11:38.583Z,22.85
2023-05-16T12:14:06.670Z,22.49
2023-05-16T12:16:33.826Z,21.94
2023-05-16T12:19:02.142Z,22.20
2023-05-16T12:21:29.117Z,22.08
2023-05-16T12:23:57.453Z,21.93
2023-05-16T12:26:32.223Z,21.79
2023-05-16T12:29:04.295Z,22.38
2023-05-16T12:31:32.697Z,22.54
2023-05-16T12:34:02.020Z,22.02
2023-05-16T12:36:32.303Z,21.90
2023-05-16T12:39:04.118Z,21.64
2023-05-16T12:41:31.447Z,21.78
2023-05-16T12:44:29.779Z,21.58
2023-05-16T12:46:58.239Z,21.55
2023-05-16T12:49:25.023Z,21.59
2023-05-16T12:51:53.023Z,21.42
2023-05-16T12:54:20.610Z,21.43
2023-05-16T12:56:47.724Z,21.40
2023-05-16T12:59:15.114Z,20.87
2023-05-16T13:01:42.263Z,20.78
2023-05-16T13:04:10.655Z,20.50
2023-05-16T13:06:56.480Z,20.36
2023-05-16T13:09:29.942Z,20.42
2023-05-16T13:11:58.066Z,20.73
2023-05-16T13:14:25.143Z,20.60
2023-05-16T13:16:51.942Z,20.64
2023-05-16T13:19:18.853Z,20.66
2023-05-16T13:21:45.966Z,21.28
2023-05-16T13:24:12.740Z,21.05
2023-05-16T13:26:39.603Z,20.96
2023-05-16T13:29:09.773Z,20.71
2023-05-16T13:31:36.715Z,20.65
2023-05-16T13:34:03.483Z,20.59
2023-05-16T13:36:41.643Z,20.67
2023-05-16T13:39:18.644Z,20.41
2023-05-16T13:41:47.294Z,21.21
2023-05-16T13:44:15.535Z,21.38
2023-05-16T13:46:42.466Z,21.53
2023-05-16T13:49:09.224Z,21.35
2023-05-16T13:51:36.186Z,21.45
2023-05-16T13:54:03.199Z,21.41
2023-05-16T13:56:30.136Z,21.74
2023-05-16T13:59:03.690Z,21.44
2023-05-16T14:01:31.641Z,21.27
2023-05-16T14:03:58.683Z,21.07
2023-05-16T14:06:26.533Z,21.18
2023-05-16T14:08:53.366Z,21.13
2023-05-16T14:11:28.486Z,21.41
2023-05-16T14:13:56.845Z,21.30
2023-05-16T14:16:23.708Z,21.14
2023-05-16T14:18:50.596Z,20.88
2023-05-16T14:21:17.761Z,20.93
2023-05-16T14:23:44.571Z,20.43
2023-05-16T14:26:11.514Z,20.18
2023-05-16T14:28:38.378Z,19.92
2023-05-16T14:31:05.452Z,19.85
2023-05-16T14:33:33.340Z,19.93
2023-05-16T14:36:01.668Z,20.12
2023-05-16T14:38:28.747Z,19.89
2023-05-16T14:40:55.592Z,20.11
2023-05-16T14:43:22.426Z,20.11
2023-05-16T14:45:49.488Z,20.00
2023-05-16T14:48:17.428Z,20.38
2023-05-16T14:50:44.396Z,20.71
2023-05-16T14:53:11.220Z,21.15
2023-05-16T14:55:38.394Z,21.21
2023-05-16T14:58:05.830Z,21.15
2023-05-16T15:00:32.659Z,21.14
2023-05-16T15:02:59.672Z,20.58
2023-05-16T15:05:26.996Z,20.42
2023-05-16T15:07:53.942Z,20.36
2023-05-16T15:10:20.869Z,20.56
2023-05-16T15:12:47.834Z,20.84
2023-05-16T15:15:16.783Z,20.43
2023-05-16T15:17:43.803Z,20.37
2023-05-16T15:20:11.373Z,20.88
2023-05-16T15:22:41.718Z,20.42
2023-05-16T15:25:09.167Z,20.68
2023-05-16T15:27:36.268Z,20.27
2023-05-16T15:30:03.321Z,21.31
2023-05-16T15:32:30.608Z,21.65
2023-05-16T15:34:57.558Z,21.50
2023-05-16T15:37:24.610Z,21.72
2023-05-16T15:39:51.632Z,21.48
2023-05-16T15:42:20.229Z,20.95
2023-05-16T15:44:47.726Z,20.45
2023-05-16T15:47:14.879Z,20.21
2023-05-16T15:49:41.730Z,20.42
2023-05-16T15:52:08.951Z,20.19
2023-05-16T15:54:36.322Z,20.16
2023-05-16T15:57:03.746Z,20.02
2023-05-16T15:59:30.919Z,20.09
2023-05-16T16:01:57.870Z,20.05
2023-05-16T16:04:24.651Z,20.22
2023-05-16T16:06:51.571Z,20.28
2023-05-16T16:09:24.773Z,20.48
2023-05-16T16:11:56.473Z,20.64
2023-05-16T16:14:24.843Z,21.26
2023-05-16T16:16:51.907Z,21.43
2023-05-16T16:19:18.947Z,21.05
2023-05-16T16:21:46.446Z,20.80
2023-05-16T16:24:13.675Z,20.94
2023-05-16T16:26:43.676Z,21.15
2023-05-16T16:29:10.446Z,20.86
2023-05-16T16:31:37.829Z,20.23
2023-05-16T16:34:04.819Z,20.40
2023-05-16T16:38:15.766Z,23.95
2023-05-16T16:40:42.341Z,22.10
2023-05-16T16:43:09.323Z,21.60
2023-05-16T16:45:36.015Z,21.57
2023-05-16T16:48:02.693Z,21.48
2023-05-16T16:50:32.037Z,21.50
2023-05-16T16:53:01.194Z,21.23
2023-05-16T16:55:28.084Z,21.40
2023-05-16T16:57:55.588Z,21.39
2023-05-16T17:00:22.257Z,21.45
2023-05-16T17:02:49.046Z,21.47
2023-05-16T17:05:16.308Z,21.47
2023-05-16T17:07:43.726Z,21.50
2023-05-16T17:10:10.872Z,21.47
2023-05-16T17:12:46.183Z,21.46
2023-05-16T17:15:12.821Z,21.44
2023-05-16T17:17:39.465Z,21.14
2023-05-16T17:20:07.243Z,21.01
2023-05-16T17:22:34.028Z,20.87
2023-05-16T17:25:00.615Z,21.12
2023-05-16T17:27:27.390Z,20.91
2023-05-16T17:29:54.056Z,20.79
2023-05-16T17:32:20.871Z,20.98
2023-05-16T17:34:47.806Z,21.10
2023-05-16T17:37:14.567Z,21.43
2023-05-16T17:39:44.385Z,20.86
2023-05-16T17:42:11.180Z,21.03
2023-05-16T17:44:40.443Z,21.13
2023-05-16T17:47:07.160Z,21.01
2023-05-16T17:49:34.328Z,20.90
2023-05-16T17:52:00.938Z,20.87
2023-05-16T17:54:31.319Z,20.89
2023-05-16T17:57:00.743Z,20.84
2023-05-16T17:59:27.747Z,20.65
2023-05-16T18:01:58.038Z,20.64
2023-05-16T18:04:26.208Z,20.68
2023-05-16T18:06:53.955Z,20.50
2023-05-16T18:09:21.213Z,20.69
2023-05-16T18:11:48.410Z,20.84
2023-05-16T18:14:15.019Z,20.93
2023-05-16T18:16:41.825Z,21.21
2023-05-16T18:19:10.112Z,21.75
2023-05-16T18:21:37.653Z,21.34
2023-05-16T18:24:07.572Z,21.71
2023-05-16T18:26:34.441Z,22.12
2023-05-16T18:29:01.973Z,22.12
2023-05-16T18:31:30.153Z,22.27
2023-05-16T18:33:57.132Z,21.89
2023-05-16T18:36:23.742Z,22.01
2023-05-16T18:38:52.088Z,22.04
2023-05-16T18:41:18.699Z,22.18
2023-05-16T18:43:45.291Z,22.08
2023-05-16T18:46:12.043Z,22.08
2023-05-16T18:48:38.779Z,22.31
2023-05-16T18:51:05.603Z,22.62
2023-05-16T18:53:32.657Z,22.75
2023-05-16T18:56:02.173Z,22.73
2023-05-16T18:58:29.406Z,22.51
2023-05-16T19:00:56.049Z,22.38
2023-05-16T19:03:23.512Z,22.35
2023-05-16T19:05:55.039Z,22.29
2023-05-16T19:08:24.209Z,22.26
2023-05-16T19:10:53.680Z,22.25
2023-05-16T19:13:21.841Z,22.40
2023-05-16T19:15:48.589Z,22.53
2023-05-16T19:18:17.599Z,22.44
2023-05-16T19:20:45.640Z,22.72
2023-05-16T19:23:13.612Z,22.68
2023-05-16T19:25:49.516Z,22.45
2023-05-16T19:28:16.646Z,22.65
2023-05-16T19:30:44.700Z,23.06
2023-05-16T19:33:15.062Z,23.21
2023-05-16T19:35:42.330Z,23.40
2023-05-16T19:38:10.673Z,23.03
2023-05-16T19:40:37.266Z,23.11
2023-05-16T19:43:03.875Z,23.06
2023-05-16T19:45:32.746Z,23.71
2023-05-16T19:47:59.440Z,23.52
2023-05-16T19:50:26.235Z,23.43
2023-05-16T19:52:52.921Z,23.27
2023-05-16T19:55:19.982Z,23.69
2023-05-16T19:57:46.663Z,23.81
2023-05-16T20:00:14.148Z,23.78
2023-05-16T20:02:42.403Z,23.18
2023-05-16T20:05:11.131Z,23.54
2023-05-16T20:07:39.711Z,24.34
2023-05-16T20:10:07.940Z,23.90
2023-05-16T20:12:35.180Z,24.56
2023-05-16T20:15:04.468Z,23.54
2023-05-16T20:17:32.037Z,23.57
2023-05-16T20:19:58.993Z,23.63
2023-05-16T20:22:27.217Z,24.23
2023-05-16T20:24:53.756Z,24.62
2023-05-16T20:27:21.868Z,24.46
2023-05-16T20:29:48.895Z,24.04
2023-05-16T20:32:16.261Z,23.44
2023-05-16T20:34:44.884Z,23.11
2023-05-16T20:37:12.942Z,23.74
2023-05-16T20:39:40.059Z,24.15
2023-05-16T20:42:10.490Z,24.28
2023-05-16T20:44:38.226Z,24.51
2023-05-16T20:47:05.589Z,24.19
2023-05-16T20:49:35.226Z,23.97
2023-05-16T20:52:01.817Z,24.15
2023-05-16T20:54:28.583Z,24.06
2023-05-16T20:56:55.225Z,24.15
2023-05-16T20:59:21.904Z,25.51
2023-05-16T21:01:48.468Z,26.77
2023-05-16T21:04:15.187Z,26.87
2023-05-16T21:06:41.788Z,26.97
2023-05-16T21:09:08.346Z,27.37
2023-05-16T21:11:35.705Z,27.80
2023-05-16T21:14:02.460Z,28.24
2023-05-16T21:16:30.454Z,28.60
2023-05-16T21:18:57.819Z,28.50
2023-05-16T21:21:24.797Z,28.60
2023-05-16T21:23:51.649Z,28.04
2023-05-16T21:26:18.226Z,28.25
2023-05-16T21:28:54.536Z,28.78
2023-05-16T21:31:22.219Z,28.43
2023-05-16T21:33:51.292Z,28.40
2023-05-16T21:36:18.775Z,28.05
2023-05-16T21:38:45.354Z,28.14
2023-05-16T21:41:12.611Z,28.09
2023-05-16T21:43:39.709Z,27.65
2023-05-16T21:46:06.745Z,27.64
2023-05-16T21:48:34.402Z,28.10
2023-05-16T21:51:01.268Z,27.87
2023-05-16T21:53:28.233Z,27.78
2023-05-16T21:55:57.628Z,27.47
2023-05-16T21:58:24.717Z,26.03
2023-05-16T22:00:51.449Z,25.82
2023-05-16T22:03:20.247Z,25.47
2023-05-16T22:05:47.247Z,25.82
2023-05-16T22:08:14.503Z,25.97
2023-05-16T22:10:41.067Z,26.50
2023-05-16T22:13:08.023Z,26.38
2023-05-16T22:15:34.770Z,26.41
2023-05-16T22:18:01.646Z,26.56
2023-05-16T22:20:29.000Z,26.77
2023-05-16T22:22:55.794Z,26.70
2023-05-16T22:25:22.708Z,26.71
2023-05-16T22:27:49.264Z,26.23
2023-05-16T22:30:16.609Z,26.15
2023-05-16T22:32:45.056Z,26.76
2023-05-16T22:35:13.890Z,28.37
2023-05-16T22:37:41.365Z,29.36
2023-05-16T22:40:08.607Z,29.19
2023-05-16T22:42:35.595Z,28.69
2023-05-16T22:45:03.250Z,27.84
2023-05-16T22:47:30.585Z,26.93
2023-05-16T22:49:57.311Z,27.91
2023-05-16T22:52:23.809Z,28.48
2023-05-16T22:54:51.172Z,27.95
2023-05-16T22:57:17.915Z,28.13
2023-05-16T22:59:44.494Z,29.59
2023-05-16T23:02:11.359Z,29.34
2023-05-16T23:04:38.137Z,28.66
2023-05-16T23:07:04.951Z,27.72
2023-05-16T23:09:31.916Z,29.39
2023-05-16T23:11:58.495Z,29.58
2023-05-16T23:14:25.637Z,28.50
2023-05-16T23:16:52.635Z,27.82
2023-05-16T23:19:19.339Z,27.52
2023-05-16T23:21:46.139Z,27.20
2023-05-16T23:24:12.867Z,27.28
2023-05-16T23:26:39.432Z,27.09
2023-05-16T23:29:06.644Z,27.73
2023-05-16T23:31:33.897Z,27.53
2023-05-16T23:34:00.768Z,27.29
2023-05-16T23:36:27.840Z,27.18
2023-05-16T23:38:54.363Z,27.07
2023-05-16T23:41:21.028Z,26.82
2023-05-16T23:43:47.913Z,26.44
2023-05-16T23:46:14.701Z,26.01
2023-05-16T23:48:41.554Z,26.75
2023-05-16T23:51:08.304Z,27.03
2023-05-16T23:53:35.277Z,26.56
2023-05-16T23:56:01.939Z,26.31
2023-05-16T23:58:29.293Z,26.64
